sensor_id;sensor_type;location;lat;lon;timestamp;pressure;altitude;pressure_sealevel;temperature;humidity
11448;BME280;43755;49.736;8.734;2023-04-01T00:01:05;96243.41;;;8.74;100.00
11448;BME280;43755;49.736;8.734;2023-04-01T00:03:07;96246.13;;;8.73;100.00
11448;BME280;43755;49.736;8.734;2023-04-01T00:05:08;96255.56;;;8.77;100.00
11448;BME280;43755;49.736;8.734;2023-04-01T00:07:11;96258.91;;;8.79;100.00
11448;BME280;43755;49.736;8.734;2023-04-01T00:09:12;96265.91;;;8.80;100.00
11448;BME280;43755;49.736;8.734;2023-04-01T00:11:14;96261.56;;;8.79;100.00
11448;BME280;43755;49.736;8.734;2023-04-01T00:13:18;96258.06;;;8.78;100.00
11448;BME280;43755;49.736;8.734;2023-04-01T00:15:20;96259.59;;;8.82;100.00
11448;BME280;43755;49.736;8.734;2023-04-01T00:17:21;96258.06;;;8.78;100.00
11448;BME280;43755;49.736;8.734;2023-04-01T00:19:23;96257.13;;;8.79;100.00
11448;BME280;43755;49.736;8.734;2023-04-01T00:21:24;96263.56;;;8.75;100.00
11448;BME280;43755;49.736;8.734;2023-04-01T00:23:26;96264.50;;;8.74;100.00
11448;BME280;43755;49.736;8.734;2023-04-01T00:25:28;96252.16;;;8.75;100.00
11448;BME280;43755;49.736;8.734;2023-04-01T00:27:30;96263.72;;;8.72;100.00
11448;BME280;43755;49.736;8.734;2023-04-01T00:29:32;96262.06;;;8.71;100.00
11448;BME280;43755;49.736;8.734;2023-04-01T00:31:34;96265.56;;;8.72;100.00
11448;BME280;43755;49.736;8.734;2023-04-01T00:33:36;96259.31;;;8.73;100.00
11448;BME280;43755;49.736;8.734;2023-04-01T00:35:38;96262.06;;;8.71;100.00
11448;BME280;43755;49.736;8.734;2023-04-01T00:37:39;96255.28;;;8.67;100.00
11448;BME280;43755;49.736;8.734;2023-04-01T00:39:41;96256.03;;;8.69;100.00
11448;BME280;43755;49.736;8.734;2023-04-01T00:41:42;96257.69;;;8.84;100.00
11448;BME280;43755;49.736;8.734;2023-04-01T00:43:46;96261.69;;;8.77;100.00
11448;BME280;43755;49.736;8.734;2023-04-01T00:45:49;96251.41;;;8.73;100.00
11448;BME280;43755;49.736;8.734;2023-04-01T00:47:50;96253.41;;;8.69;100.00
11448;BME280;43755;49.736;8.734;2023-04-01T00:49:53;96252.00;;;8.63;100.00
11448;BME280;43755;49.736;8.734;2023-04-01T00:51:57;96255.38;;;8.66;100.00
11448;BME280;43755;49.736;8.734;2023-04-01T00:54:02;96246.50;;;8.67;100.00
11448;BME280;43755;49.736;8.734;2023-04-01T00:56:05;96251.78;;;8.67;100.00
11448;BME280;43755;49.736;8.734;2023-04-01T00:58:14;96255.09;;;8.70;100.00
11448;BME280;43755;49.736;8.734;2023-04-01T01:00:17;96257.06;;;8.67;100.00
11448;BME280;43755;49.736;8.734;2023-04-01T01:02:20;96251.13;;;8.63;100.00
11448;BME280;43755;49.736;8.734;2023-04-01T01:04:24;96263.28;;;8.66;100.00
11448;BME280;43755;49.736;8.734;2023-04-01T01:06:35;96255.47;;;8.64;100.00
11448;BME280;43755;49.736;8.734;2023-04-01T01:08:52;96251.06;;;8.65;100.00
11448;BME280;43755;49.736;8.734;2023-04-01T01:10:57;96253.69;;;8.65;100.00
11448;BME280;43755;49.736;8.734;2023-04-01T01:13:05;96245.78;;;8.65;100.00
11448;BME280;43755;49.736;8.734;2023-04-01T01:15:17;96235.97;;;8.67;100.00
11448;BME280;43755;49.736;8.734;2023-04-01T01:17:32;96246.97;;;8.73;100.00
11448;BME280;43755;49.736;8.734;2023-04-01T01:19:51;96238.22;;;8.73;100.00
11448;BME280;43755;49.736;8.734;2023-04-01T01:22:08;96239.91;;;8.74;100.00
11448;BME280;43755;49.736;8.734;2023-04-01T01:24:25;96232.84;;;8.74;100.00
11448;BME280;43755;49.736;8.734;2023-04-01T01:26:50;96243.31;;;8.76;100.00
11448;BME280;43755;49.736;8.734;2023-04-01T01:29:00;96235.41;;;8.76;100.00
11448;BME280;43755;49.736;8.734;2023-04-01T01:31:12;96237.38;;;8.72;100.00
11448;BME280;43755;49.736;8.734;2023-04-01T01:33:25;96237.28;;;8.74;100.00
11448;BME280;43755;49.736;8.734;2023-04-01T01:35:35;96225.88;;;8.73;100.00
11448;BME280;43755;49.736;8.734;2023-04-01T01:37:40;96230.44;;;8.71;100.00
11448;BME280;43755;49.736;8.734;2023-04-01T01:39:44;96233.72;;;8.75;100.00
11448;BME280;43755;49.736;8.734;2023-04-01T01:41:47;96236.44;;;8.73;100.00
11448;BME280;43755;49.736;8.734;2023-04-01T01:43:50;96229.28;;;8.75;100.00
11448;BME280;43755;49.736;8.734;2023-04-01T01:45:57;96233.63;;;8.76;100.00
11448;BME280;43755;49.736;8.734;2023-04-01T01:48:02;96229.75;;;8.82;100.00
11448;BME280;43755;49.736;8.734;2023-04-01T01:50:05;96221.63;;;8.85;100.00
11448;BME280;43755;49.736;8.734;2023-04-01T01:52:09;96224.47;;;8.82;100.00
11448;BME280;43755;49.736;8.734;2023-04-01T01:54:12;96217.41;;;8.82;100.00
11448;BME280;43755;49.736;8.734;2023-04-01T01:56:17;96219.75;;;8.87;100.00
11448;BME280;43755;49.736;8.734;2023-04-01T01:58:21;96224.38;;;8.83;100.00
11448;BME280;43755;49.736;8.734;2023-04-01T02:00:24;96218.25;;;8.83;100.00
11448;BME280;43755;49.736;8.734;2023-04-01T02:02:26;96222.00;;;8.79;100.00
11448;BME280;43755;49.736;8.734;2023-04-01T02:04:31;96225.31;;;8.82;100.00
11448;BME280;43755;49.736;8.734;2023-04-01T02:06:37;96222.47;;;8.85;100.00
11448;BME280;43755;49.736;8.734;2023-04-01T02:08:43;96218.34;;;8.81;100.00
11448;BME280;43755;49.736;8.734;2023-04-01T02:10:56;96214.94;;;8.79;100.00
11448;BME280;43755;49.736;8.734;2023-04-01T02:13:03;96212.22;;;8.81;100.00
11448;BME280;43755;49.736;8.734;2023-04-01T02:15:09;96215.81;;;8.80;100.00
11448;BME280;43755;49.736;8.734;2023-04-01T02:17:15;96217.59;;;8.79;100.00
11448;BME280;43755;49.736;8.734;2023-04-01T02:19:18;96217.59;;;8.79;100.00
11448;BME280;43755;49.736;8.734;2023-04-01T02:21:23;96219.75;;;8.73;100.00
11448;BME280;43755;49.736;8.734;2023-04-01T02:23:26;96216.28;;;8.72;100.00
11448;BME280;43755;49.736;8.734;2023-04-01T02:25:33;96217.44;;;8.68;100.00
11448;BME280;43755;49.736;8.734;2023-04-01T02:27:36;96212.25;;;8.67;100.00
11448;BME280;43755;49.736;8.734;2023-04-01T02:29:38;96208.97;;;8.63;100.00
11448;BME280;43755;49.736;8.734;2023-04-01T02:31:41;96215.84;;;8.66;100.00
11448;BME280;43755;49.736;8.734;2023-04-01T02:33:44;96218.28;;;8.69;100.00
11448;BME280;43755;49.736;8.734;2023-04-01T02:35:46;96218.75;;;8.61;100.00
11448;BME280;43755;49.736;8.734;2023-04-01T02:37:49;96227.72;;;8.58;100.00
11448;BME280;43755;49.736;8.734;2023-04-01T02:39:51;96223.00;;;8.63;100.00
11448;BME280;43755;49.736;8.734;2023-04-01T02:41:54;96216.13;;;8.61;100.00
11448;BME280;43755;49.736;8.734;2023-04-01T02:43:55;96232.69;;;8.63;100.00
11448;BME280;43755;49.736;8.734;2023-04-01T02:45:58;96217.53;;;8.67;100.00
11448;BME280;43755;49.736;8.734;2023-04-01T02:48:00;96232.59;;;8.65;100.00
11448;BME280;43755;49.736;8.734;2023-04-01T02:50:01;96233.63;;;8.62;100.00
11448;BME280;43755;49.736;8.734;2023-04-01T02:52:03;96217.81;;;8.62;100.00
11448;BME280;43755;49.736;8.734;2023-04-01T02:54:06;96221.69;;;8.56;100.00
11448;BME280;43755;49.736;8.734;2023-04-01T02:56:07;96222.25;;;8.61;100.00
11448;BME280;43755;49.736;8.734;2023-04-01T02:58:10;96224.97;;;8.60;100.00
11448;BME280;43755;49.736;8.734;2023-04-01T03:00:13;96218.88;;;8.59;100.00
11448;BME280;43755;49.736;8.734;2023-04-01T03:02:16;96202.09;;;8.60;100.00
11448;BME280;43755;49.736;8.734;2023-04-01T03:04:17;96214.25;;;8.63;100.00
11448;BME280;43755;49.736;8.734;2023-04-01T03:06:19;96213.47;;;8.61;100.00
11448;BME280;43755;49.736;8.734;2023-04-01T03:08:20;96209.91;;;8.62;100.00
11448;BME280;43755;49.736;8.734;2023-04-01T03:10:22;96211.78;;;8.60;100.00
11448;BME280;43755;49.736;8.734;2023-04-01T03:12:26;96207.66;;;8.56;100.00
11448;BME280;43755;49.736;8.734;2023-04-01T03:14:28;96209.34;;;8.57;100.00
11448;BME280;43755;49.736;8.734;2023-04-01T03:16:30;96197.97;;;8.56;100.00
11448;BME280;43755;49.736;8.734;2023-04-01T03:18:31;96198.06;;;8.55;100.00
11448;BME280;43755;49.736;8.734;2023-04-01T03:20:32;96209.44;;;8.55;100.00
11448;BME280;43755;49.736;8.734;2023-04-01T03:22:34;96205.88;;;8.56;100.00
11448;BME280;43755;49.736;8.734;2023-04-01T03:24:36;96202.38;;;8.56;100.00
11448;BME280;43755;49.736;8.734;2023-04-01T03:26:37;96208.41;;;8.58;100.00
11448;BME280;43755;49.736;8.734;2023-04-01T03:28:39;96202.84;;;8.62;100.00
11448;BME280;43755;49.736;8.734;2023-04-01T03:30:41;96202.09;;;8.60;100.00
11448;BME280;43755;49.736;8.734;2023-04-01T03:32:43;96208.22;;;8.61;100.00
11448;BME280;43755;49.736;8.734;2023-04-01T03:34:46;96210.19;;;8.57;100.00
11448;BME280;43755;49.736;8.734;2023-04-01T03:36:48;96206.09;;;8.53;100.00
11448;BME280;43755;49.736;8.734;2023-04-01T03:38:49;96216.63;;;8.53;100.00
11448;BME280;43755;49.736;8.734;2023-04-01T03:40:51;96211.44;;;8.52;100.00
11448;BME280;43755;49.736;8.734;2023-04-01T03:42:52;96221.91;;;8.53;100.00
11448;BME280;43755;49.736;8.734;2023-04-01T03:44:53;96211.44;;;8.52;100.00
11448;BME280;43755;49.736;8.734;2023-04-01T03:46:56;96214.00;;;8.53;100.00
11448;BME280;43755;49.736;8.734;2023-04-01T03:48:58;96219.34;;;8.52;100.00
11448;BME280;43755;49.736;8.734;2023-04-01T03:50:59;96217.84;;;8.48;100.00
11448;BME280;43755;49.736;8.734;2023-04-01T03:53:00;96220.50;;;8.48;100.00
11448;BME280;43755;49.736;8.734;2023-04-01T03:55:02;96225.56;;;8.51;100.00
11448;BME280;43755;49.736;8.734;2023-04-01T03:57:04;96217.94;;;8.46;100.00
11448;BME280;43755;49.736;8.734;2023-04-01T03:59:07;96233.00;;;8.44;100.00
11448;BME280;43755;49.736;8.734;2023-04-01T04:01:19;96227.06;;;8.41;100.00
11448;BME280;43755;49.736;8.734;2023-04-01T04:03:22;96221.72;;;8.42;100.00
11448;BME280;43755;49.736;8.734;2023-04-01T04:05:25;96215.69;;;8.40;100.00
11448;BME280;43755;49.736;8.734;2023-04-01T04:07:26;96222.84;;;8.38;100.00
11448;BME280;43755;49.736;8.734;2023-04-01T04:09:29;96209.47;;;8.41;100.00
11448;BME280;43755;49.736;8.734;2023-04-01T04:11:31;96215.88;;;8.37;100.00
11448;BME280;43755;49.736;8.734;2023-04-01T04:13:32;96216.63;;;8.39;100.00
11448;BME280;43755;49.736;8.734;2023-04-01T04:15:34;96215.00;;;8.37;100.00
11448;BME280;43755;49.736;8.734;2023-04-01T04:17:36;96215.00;;;8.37;100.00
11448;BME280;43755;49.736;8.734;2023-04-01T04:19:38;96215.13;;;8.35;100.00
11448;BME280;43755;49.736;8.734;2023-04-01T04:21:40;96212.50;;;8.35;100.00
11448;BME280;43755;49.736;8.734;2023-04-01T04:23:42;96208.72;;;8.39;100.00
11448;BME280;43755;49.736;8.734;2023-04-01T04:25:53;96216.72;;;8.38;100.00
11448;BME280;43755;49.736;8.734;2023-04-01T04:27:55;96211.81;;;8.32;100.00
11448;BME280;43755;49.736;8.734;2023-04-01T04:29:56;96211.66;;;8.35;100.00
11448;BME280;43755;49.736;8.734;2023-04-01T04:31:57;96188.03;;;8.33;100.00
11448;BME280;43755;49.736;8.734;2023-04-01T04:34:00;96197.41;;;8.37;100.00
11448;BME280;43755;49.736;8.734;2023-04-01T04:36:03;96205.72;;;8.31;100.00
11448;BME280;43755;49.736;8.734;2023-04-01T04:38:05;96203.84;;;8.33;100.00
11448;BME280;43755;49.736;8.734;2023-04-01T04:40:07;96198.56;;;8.33;100.00
11448;BME280;43755;49.736;8.734;2023-04-01T04:42:09;96209.31;;;8.30;100.00
11448;BME280;43755;49.736;8.734;2023-04-01T04:44:10;96205.72;;;8.31;100.00
11448;BME280;43755;49.736;8.734;2023-04-01T04:46:12;96209.88;;;8.35;100.00
11448;BME280;43755;49.736;8.734;2023-04-01T04:48:15;96204.47;;;8.37;100.00
11448;BME280;43755;49.736;8.734;2023-04-01T04:50:18;96206.47;;;8.33;100.00
11448;BME280;43755;49.736;8.734;2023-04-01T04:52:21;96196.03;;;8.32;100.00
11448;BME280;43755;49.736;8.734;2023-04-01T04:54:22;96194.22;;;8.32;100.00
11448;BME280;43755;49.736;8.734;2023-04-01T04:56:24;96200.44;;;8.31;100.00
11448;BME280;43755;49.736;8.734;2023-04-01T04:58:26;96193.50;;;8.30;100.00
11448;BME280;43755;49.736;8.734;2023-04-01T05:00:27;96196.94;;;8.31;100.00
11448;BME280;43755;49.736;8.734;2023-04-01T05:02:29;96197.97;;;8.28;100.00
11448;BME280;43755;49.736;8.734;2023-04-01T05:04:34;96196.19;;;8.29;100.00
11448;BME280;43755;49.736;8.734;2023-04-01T05:06:35;96204.59;;;8.35;100.00
11448;BME280;43755;49.736;8.734;2023-04-01T05:08:38;96195.94;;;8.33;100.00
11448;BME280;43755;49.736;8.734;2023-04-01T05:10:40;96199.50;;;8.32;100.00
11448;BME280;43755;49.736;8.734;2023-04-01T05:12:41;96193.38;;;8.32;100.00
11448;BME280;43755;49.736;8.734;2023-04-01T05:14:43;96197.72;;;8.33;100.00
11448;BME280;43755;49.736;8.734;2023-04-01T05:16:44;96188.66;;;8.37;100.00
11448;BME280;43755;49.736;8.734;2023-04-01T05:18:47;96200.34;;;8.33;100.00
11448;BME280;43755;49.736;8.734;2023-04-01T05:20:50;96197.53;;;8.36;100.00
11448;BME280;43755;49.736;8.734;2023-04-01T05:22:55;96203.75;;;8.35;100.00
11448;BME280;43755;49.736;8.734;2023-04-01T05:24:58;96190.56;;;8.35;100.00
11448;BME280;43755;49.736;8.734;2023-04-01T05:26:59;96195.75;;;8.36;100.00
11448;BME280;43755;49.736;8.734;2023-04-01T05:29:01;96194.78;;;8.37;100.00
11448;BME280;43755;49.736;8.734;2023-04-01T05:31:03;96197.34;;;8.39;100.00
11448;BME280;43755;49.736;8.734;2023-04-01T05:33:05;96189.44;;;8.39;100.00
11448;BME280;43755;49.736;8.734;2023-04-01T05:35:07;96198.00;;;8.42;100.00
11448;BME280;43755;49.736;8.734;2023-04-01T05:37:08;96190.19;;;8.41;100.00
11448;BME280;43755;49.736;8.734;2023-04-01T05:39:10;96193.56;;;8.43;100.00
11448;BME280;43755;49.736;8.734;2023-04-01T05:41:13;96189.72;;;8.34;100.00
11448;BME280;43755;49.736;8.734;2023-04-01T05:43:15;96194.06;;;8.35;100.00
11448;BME280;43755;49.736;8.734;2023-04-01T05:45:16;96190.66;;;8.33;100.00
11448;BME280;43755;49.736;8.734;2023-04-01T05:47:18;96202.22;;;8.31;100.00
11448;BME280;43755;49.736;8.734;2023-04-01T05:49:19;96184.03;;;8.26;100.00
11448;BME280;43755;49.736;8.734;2023-04-01T05:51:20;96183.56;;;8.19;100.00
11448;BME280;43755;49.736;8.734;2023-04-01T05:53:22;96185.34;;;8.19;100.00
11448;BME280;43755;49.736;8.734;2023-04-01T05:55:23;96189.13;;;8.15;100.00
11448;BME280;43755;49.736;8.734;2023-04-01T05:57:26;96191.38;;;8.21;100.00
11448;BME280;43755;49.736;8.734;2023-04-01T05:59:28;96187.91;;;8.20;100.00
11448;BME280;43755;49.736;8.734;2023-04-01T06:01:31;96178.50;;;8.16;100.00
11448;BME280;43755;49.736;8.734;2023-04-01T06:03:32;96188.97;;;8.18;100.00
11448;BME280;43755;49.736;8.734;2023-04-01T06:05:38;96180.84;;;8.21;100.00
11448;BME280;43755;49.736;8.734;2023-04-01T06:07:40;96188.66;;;8.22;100.00
11448;BME280;43755;49.736;8.734;2023-04-01T06:09:42;96180.94;;;8.19;100.00
11448;BME280;43755;49.736;8.734;2023-04-01T06:11:54;96191.22;;;8.24;100.00
11448;BME280;43755;49.736;8.734;2023-04-01T06:14:10;96183.97;;;8.28;100.00
11448;BME280;43755;49.736;8.734;2023-04-01T06:16:19;96179.91;;;8.22;100.00
11448;BME280;43755;49.736;8.734;2023-04-01T06:18:46;96193.00;;;8.23;100.00
11448;BME280;43755;49.736;8.734;2023-04-01T06:20:54;96186.59;;;8.13;100.00
11448;BME280;43755;49.736;8.734;2023-04-01T06:23:24;96185.94;;;8.10;100.00
11448;BME280;43755;49.736;8.734;2023-04-01T06:25:39;96187.63;;;8.11;100.00
11448;BME280;43755;49.736;8.734;2023-04-01T06:27:56;96186.69;;;7.98;100.00
11448;BME280;43755;49.736;8.734;2023-04-01T06:30:26;96181.25;;;8.01;100.00
11448;BME280;43755;49.736;8.734;2023-04-01T06:32:48;96186.22;;;7.91;100.00
11448;BME280;43755;49.736;8.734;2023-04-01T06:37:28;96193.81;;;7.96;100.00
11448;BME280;43755;49.736;8.734;2023-04-01T06:39:52;96192.16;;;7.95;100.00
11448;BME280;43755;49.736;8.734;2023-04-01T06:42:29;96187.16;;;7.90;100.00
11448;BME280;43755;49.736;8.734;2023-04-01T06:44:39;96179.72;;;7.97;100.00
11448;BME280;43755;49.736;8.734;2023-04-01T06:46:48;96182.44;;;7.95;100.00
11448;BME280;43755;49.736;8.734;2023-04-01T06:49:02;96181.63;;;7.95;100.00
11448;BME280;43755;49.736;8.734;2023-04-01T06:51:15;96186.22;;;7.91;100.00
11448;BME280;43755;49.736;8.734;2023-04-01T06:53:21;96177.38;;;7.92;100.00
11448;BME280;43755;49.736;8.734;2023-04-01T06:55:27;96191.13;;;7.97;100.00
11448;BME280;43755;49.736;8.734;2023-04-01T06:57:41;96183.28;;;7.96;100.00
11448;BME280;43755;49.736;8.734;2023-04-01T06:59:43;96198.94;;;7.99;100.00
11448;BME280;43755;49.736;8.734;2023-04-01T07:01:49;96185.38;;;7.91;100.00
11448;BME280;43755;49.736;8.734;2023-04-01T07:03:56;96192.16;;;7.95;100.00
11448;BME280;43755;49.736;8.734;2023-04-01T07:06:02;96192.97;;;7.95;100.00
11448;BME280;43755;49.736;8.734;2023-04-01T07:08:06;96196.22;;;8.00;100.00
11448;BME280;43755;49.736;8.734;2023-04-01T07:10:12;96197.06;;;8.01;100.00
11448;BME280;43755;49.736;8.734;2023-04-01T07:12:22;96199.00;;;7.97;100.00
11448;BME280;43755;49.736;8.734;2023-04-01T07:14:30;96197.13;;;7.99;100.00
11448;BME280;43755;49.736;8.734;2023-04-01T07:16:36;96202.00;;;7.91;100.00
11448;BME280;43755;49.736;8.734;2023-04-01T07:18:43;96202.00;;;7.91;100.00
11448;BME280;43755;49.736;8.734;2023-04-01T07:20:46;96203.44;;;7.82;100.00
11448;BME280;43755;49.736;8.734;2023-04-01T07:22:49;96213.69;;;7.87;100.00
11448;BME280;43755;49.736;8.734;2023-04-01T07:24:52;96203.59;;;7.79;100.00
11448;BME280;43755;49.736;8.734;2023-04-01T07:26:56;96193.00;;;7.81;100.00
11448;BME280;43755;49.736;8.734;2023-04-01T07:28:58;96208.88;;;7.79;100.00
11448;BME280;43755;49.736;8.734;2023-04-01T07:31:07;96208.88;;;7.79;100.00
11448;BME280;43755;49.736;8.734;2023-04-01T07:33:17;96204.00;;;7.88;100.00
11448;BME280;43755;49.736;8.734;2023-04-01T07:35:25;96214.53;;;7.88;100.00
11448;BME280;43755;49.736;8.734;2023-04-01T07:37:31;96205.94;;;7.84;100.00
11448;BME280;43755;49.736;8.734;2023-04-01T07:39:41;96222.72;;;7.83;100.00
11448;BME280;43755;49.736;8.734;2023-04-01T07:41:51;96222.09;;;7.78;100.00
11448;BME280;43755;49.736;8.734;2023-04-01T07:44:05;96214.63;;;7.86;100.00
11448;BME280;43755;49.736;8.734;2023-04-01T07:46:16;96218.84;;;7.89;100.00
11448;BME280;43755;49.736;8.734;2023-04-01T07:48:27;96212.47;;;7.93;100.00
11448;BME280;43755;49.736;8.734;2023-04-01T07:50:35;96218.38;;;7.82;100.00
11448;BME280;43755;49.736;8.734;2023-04-01T07:52:45;96220.28;;;7.94;100.00
11448;BME280;43755;49.736;8.734;2023-04-01T07:54:52;96217.81;;;7.91;100.00
11448;BME280;43755;49.736;8.734;2023-04-01T07:56:57;96220.75;;;8.01;100.00
11448;BME280;43755;49.736;8.734;2023-04-01T07:59:08;96223.00;;;8.07;100.00
11448;BME280;43755;49.736;8.734;2023-04-01T08:01:15;96222.59;;;8.13;100.00
11448;BME280;43755;49.736;8.734;2023-04-01T08:03:33;96220.56;;;8.18;100.00
11448;BME280;43755;49.736;8.734;2023-04-01T08:05:47;96211.44;;;8.09;100.00
11448;BME280;43755;49.736;8.734;2023-04-01T08:07:57;96220.94;;;8.12;100.00
11448;BME280;43755;49.736;8.734;2023-04-01T08:10:08;96222.72;;;8.11;100.00
11448;BME280;43755;49.736;8.734;2023-04-01T08:12:27;96220.19;;;8.10;100.00
11448;BME280;43755;49.736;8.734;2023-04-01T08:14:37;96226.28;;;8.10;100.00
11448;BME280;43755;49.736;8.734;2023-04-01T08:16:46;96230.44;;;8.00;100.00
11448;BME280;43755;49.736;8.734;2023-04-01T08:18:58;96226.59;;;8.06;100.00
11448;BME280;43755;49.736;8.734;2023-04-01T08:21:10;96233.16;;;8.13;100.00
11448;BME280;43755;49.736;8.734;2023-04-01T08:23:15;96239.38;;;8.12;100.00
11448;BME280;43755;49.736;8.734;2023-04-01T08:25:20;96238.41;;;8.13;100.00
11448;BME280;43755;49.736;8.734;2023-04-01T08:27:28;96245.56;;;8.11;100.00
11448;BME280;43755;49.736;8.734;2023-04-01T08:29:37;96236.91;;;8.09;100.00
11448;BME280;43755;49.736;8.734;2023-04-01T08:31:47;96238.81;;;8.07;100.00
11448;BME280;43755;49.736;8.734;2023-04-01T08:33:53;96233.25;;;8.11;100.00
11448;BME280;43755;49.736;8.734;2023-04-01T08:35:59;96238.81;;;8.07;100.00
11448;BME280;43755;49.736;8.734;2023-04-01T08:38:06;96242.75;;;8.00;100.00
11448;BME280;43755;49.736;8.734;2023-04-01T08:40:33;96247.91;;;8.01;100.00
11448;BME280;43755;49.736;8.734;2023-04-01T08:42:59;96244.81;;;7.95;100.00
11448;BME280;43755;49.736;8.734;2023-04-01T08:45:15;96245.94;;;8.05;100.00
11448;BME280;43755;49.736;8.734;2023-04-01T08:47:29;96243.41;;;8.03;100.00
11448;BME280;43755;49.736;8.734;2023-04-01T08:49:52;96244.63;;;7.98;100.00
11448;BME280;43755;49.736;8.734;2023-04-01T08:52:18;96244.13;;;7.91;100.00
11448;BME280;43755;49.736;8.734;2023-04-01T08:54:37;96243.84;;;7.96;100.00
11448;BME280;43755;49.736;8.734;2023-04-01T08:56:52;96246.59;;;7.94;100.00
11448;BME280;43755;49.736;8.734;2023-04-01T08:59:13;96244.81;;;7.95;100.00
11448;BME280;43755;49.736;8.734;2023-04-01T09:01:31;96250.72;;;7.98;100.00
11448;BME280;43755;49.736;8.734;2023-04-01T09:03:44;96243.97;;;7.94;100.00
11448;BME280;43755;49.736;8.734;2023-04-01T09:08:37;96259.28;;;8.02;100.00
11448;BME280;43755;49.736;8.734;2023-04-01T09:10:57;96259.19;;;8.03;100.00
11448;BME280;43755;49.736;8.734;2023-04-01T09:13:15;96247.72;;;8.04;100.00
11448;BME280;43755;49.736;8.734;2023-04-01T09:18:15;96250.00;;;8.10;100.00
11448;BME280;43755;49.736;8.734;2023-04-01T09:20:33;96248.69;;;8.17;100.00
11448;BME280;43755;49.736;8.734;2023-04-01T09:22:50;96252.34;;;8.15;100.00
11448;BME280;43755;49.736;8.734;2023-04-01T09:25:06;96254.03;;;8.16;100.00
11448;BME280;43755;49.736;8.734;2023-04-01T09:27:25;96259.31;;;8.16;100.00
11448;BME280;43755;49.736;8.734;2023-04-01T09:32:09;96257.03;;;8.10;100.00
11448;BME280;43755;49.736;8.734;2023-04-01T09:34:27;96257.81;;;8.12;100.00
11448;BME280;43755;49.736;8.734;2023-04-01T09:36:47;96263.06;;;8.26;100.00
11448;BME280;43755;49.736;8.734;2023-04-01T09:38:57;96261.13;;;8.30;100.00
11448;BME280;43755;49.736;8.734;2023-04-01T09:41:07;96257.94;;;8.39;100.00
11448;BME280;43755;49.736;8.734;2023-04-01T09:43:42;96261.50;;;8.38;100.00
11448;BME280;43755;49.736;8.734;2023-04-01T09:46:06;96271.97;;;8.39;100.00
11448;BME280;43755;49.736;8.734;2023-04-01T09:48:37;96272.66;;;8.27;100.00
11448;BME280;43755;49.736;8.734;2023-04-01T09:50:51;96274.66;;;8.23;100.00
11448;BME280;43755;49.736;8.734;2023-04-01T09:53:07;96273.53;;;8.28;100.00
11448;BME280;43755;49.736;8.734;2023-04-01T09:55:21;96269.59;;;8.35;100.00
11448;BME280;43755;49.736;8.734;2023-04-01T09:57:45;96274.25;;;8.15;100.00
11448;BME280;43755;49.736;8.734;2023-04-01T10:00:19;96278.59;;;8.16;100.00
11448;BME280;43755;49.736;8.734;2023-04-01T10:02:52;96282.44;;;8.11;100.00
11448;BME280;43755;49.736;8.734;2023-04-01T10:05:34;96287.41;;;8.01;100.00
11448;BME280;43755;49.736;8.734;2023-04-01T10:08:14;96280.34;;;8.02;100.00
11448;BME280;43755;49.736;8.734;2023-04-01T10:10:45;96279.91;;;8.09;100.00
11448;BME280;43755;49.736;8.734;2023-04-01T10:15:53;96291.28;;;8.10;100.00
11448;BME280;43755;49.736;8.734;2023-04-01T10:20:59;96291.47;;;8.21;100.00
11448;BME280;43755;49.736;8.734;2023-04-01T10:23:21;96293.34;;;8.19;100.00
11448;BME280;43755;49.736;8.734;2023-04-01T10:25:49;96285.00;;;8.12;100.00
11448;BME280;43755;49.736;8.734;2023-04-01T10:28:11;96299.38;;;8.21;100.00
11448;BME280;43755;49.736;8.734;2023-04-01T10:30:35;96297.31;;;8.26;100.00
11448;BME280;43755;49.736;8.734;2023-04-01T10:33:19;96296.59;;;8.24;100.00
11448;BME280;43755;49.736;8.734;2023-04-01T10:35:45;96283.50;;;8.37;100.00
11448;BME280;43755;49.736;8.734;2023-04-01T10:38:19;96282.41;;;8.41;100.00
11448;BME280;43755;49.736;8.734;2023-04-01T10:43:37;96286.34;;;8.34;100.00
11448;BME280;43755;49.736;8.734;2023-04-01T10:45:57;96291.34;;;8.38;100.00
11448;BME280;43755;49.736;8.734;2023-04-01T10:48:19;96293.13;;;8.52;100.00
11448;BME280;43755;49.736;8.734;2023-04-01T10:50:47;96289.44;;;8.54;100.00
11448;BME280;43755;49.736;8.734;2023-04-01T10:53:21;96290.84;;;8.60;100.00
11448;BME280;43755;49.736;8.734;2023-04-01T10:55:43;96298.13;;;8.56;100.00
11448;BME280;43755;49.736;8.734;2023-04-01T10:58:12;96289.34;;;8.56;100.00
11448;BME280;43755;49.736;8.734;2023-04-01T11:00:40;96296.34;;;8.71;100.00
11448;BME280;43755;49.736;8.734;2023-04-01T11:06:03;96294.72;;;8.69;100.00
11448;BME280;43755;49.736;8.734;2023-04-01T11:08:50;96292.72;;;8.72;100.00
11448;BME280;43755;49.736;8.734;2023-04-01T11:14:24;96296.03;;;8.76;100.00
11448;BME280;43755;49.736;8.734;2023-04-01T11:16:45;96298.38;;;8.80;100.00
11448;BME280;43755;49.736;8.734;2023-04-01T11:19:25;96301.78;;;8.82;100.00
11448;BME280;43755;49.736;8.734;2023-04-01T11:27:01;96306.63;;;9.17;100.00
11448;BME280;43755;49.736;8.734;2023-04-01T11:29:27;96309.72;;;9.09;100.00
11448;BME280;43755;49.736;8.734;2023-04-01T11:31:42;96308.50;;;9.15;100.00
11448;BME280;43755;49.736;8.734;2023-04-01T11:33:49;96307.69;;;9.27;100.00
11448;BME280;43755;49.736;8.734;2023-04-01T11:36:06;96303.97;;;9.17;100.00
11448;BME280;43755;49.736;8.734;2023-04-01T11:38:23;96307.69;;;9.27;100.00
11448;BME280;43755;49.736;8.734;2023-04-01T11:40:33;96316.56;;;9.26;100.00
11448;BME280;43755;49.736;8.734;2023-04-01T11:42:45;96313.59;;;9.18;100.00
11448;BME280;43755;49.736;8.734;2023-04-01T11:44:58;96322.63;;;9.14;100.00
11448;BME280;43755;49.736;8.734;2023-04-01T11:47:18;96326.41;;;9.10;100.00
11448;BME280;43755;49.736;8.734;2023-04-01T11:49:44;96313.47;;;9.19;100.00
11448;BME280;43755;49.736;8.734;2023-04-01T11:51:59;96315.56;;;9.14;100.00
11448;BME280;43755;49.736;8.734;2023-04-01T11:54:14;96319.03;;;9.15;100.00